Time;durP1;ratioP1;P1;durP2;ratioP2;P2;SDS_P1;SDS_P2;PMS_P1;PMS_P2;Temp;Humidity;BMP_temperature;BMP_pressure;BME280_temperature;BME280_humidity;BME280_pressure;Samples;Min_cycle;Max_cycle;Signal;HPM_P1;HPM_P2
2022/03/18 00:00:16;;;;;;;8.43;4.50;;;;;;;-6.36;36.77;102592.22;4829888;29;20066;-80
2022/03/18 00:02:43;;;;;;;17.73;4.90;;;;;;;-6.13;36.91;102626.69;4835274;29;20073;-79
2022/03/18 00:05:09;;;;;;;16.43;4.93;;;;;;;-6.44;37.01;102571.16;4840925;29;20057;-80
2022/03/18 00:07:35;;;;;;;12.27;5.17;;;;;;;-6.22;36.89;102619.03;4849520;29;20133;-80
2022/03/18 00:10:01;;;;;;;26.47;5.93;;;;;;;-6.19;36.82;102616.81;4841688;29;20418;-79
2022/03/18 00:12:27;;;;;;;21.40;4.97;;;;;;;-6.17;37.00;102622.03;4827542;29;20042;-81
2022/03/18 00:14:53;;;;;;;13.87;5.37;;;;;;;-6.28;37.04;102614.22;4842276;29;20728;-78
2022/03/18 00:17:19;;;;;;;17.17;6.30;;;;;;;-6.32;37.15;102608.69;4798701;29;20050;-79
2022/03/18 00:19:45;;;;;;;16.27;5.20;;;;;;;-6.26;37.28;102621.97;4830019;29;20522;-80
2022/03/18 00:22:12;;;;;;;19.97;5.30;;;;;;;-6.68;36.96;102552.66;4825229;29;20141;-79
2022/03/18 00:24:38;;;;;;;12.30;4.93;;;;;;;-6.30;36.90;102623.28;4839278;29;20151;-80
2022/03/18 00:27:05;;;;;;;16.30;5.47;;;;;;;-6.43;37.38;102610.97;4831487;29;20377;-80
2022/03/18 00:29:32;;;;;;;19.07;5.50;;;;;;;-6.32;36.81;102618.81;4831396;29;20054;-78
2022/03/18 00:31:59;;;;;;;15.00;5.17;;;;;;;-6.35;37.42;102614.31;4844896;29;20507;-80
2022/03/18 00:34:26;;;;;;;26.23;5.33;;;;;;;-6.34;37.34;102610.16;4844913;29;20046;-78
2022/03/18 00:36:53;;;;;;;16.63;5.50;;;;;;;-6.46;37.44;102595.44;4829146;29;20054;-80
2022/03/18 00:39:19;;;;;;;19.33;6.27;;;;;;;-6.39;36.77;102612.19;4826615;29;20042;-80
2022/03/18 00:41:45;;;;;;;20.30;5.60;;;;;;;-6.41;37.26;102617.09;4828531;29;20042;-79
2022/03/18 00:44:11;;;;;;;19.53;5.43;;;;;;;-6.39;37.62;102623.22;4828834;29;20053;-82
2022/03/18 00:46:37;;;;;;;15.93;5.77;;;;;;;-6.51;37.20;102610.16;4828893;29;20407;-81
2022/03/18 00:52:06;;;;;;;23.43;7.13;;;;;;;-6.44;37.71;102624.38;4829410;29;20270;-79
2022/03/18 00:54:39;;;;;;;16.27;5.83;;;;;;;-6.49;37.39;102611.97;4826391;29;20042;-79
2022/03/18 00:57:06;;;;;;;14.87;6.20;;;;;;;-6.53;37.34;102606.56;4828460;29;20050;-81
2022/03/18 00:59:32;;;;;;;21.70;6.17;;;;;;;-6.71;37.52;102587.78;4841027;29;20046;-80
2022/03/18 01:01:59;;;;;;;20.67;7.10;;;;;;;-6.70;37.45;102593.78;4827669;29;20046;-79
2022/03/18 01:04:26;;;;;;;21.87;6.73;;;;;;;-6.62;37.88;102602.19;4841441;29;20050;-81
2022/03/18 01:06:52;;;;;;;18.30;6.50;;;;;;;-6.54;37.79;102621.63;4806779;29;20099;-79
2022/03/18 01:09:20;;;;;;;22.57;6.33;;;;;;;-6.63;38.00;102610.50;4826088;29;20042;-80
2022/03/18 01:11:47;;;;;;;21.80;6.60;;;;;;;-6.72;37.91;102611.31;4827710;29;20053;-80
2022/03/18 01:14:14;;;;;;;24.77;7.07;;;;;;;-6.69;37.93;102615.84;4840807;29;20054;-79
2022/03/18 01:16:40;;;;;;;42.50;7.00;;;;;;;-6.77;37.87;102607.44;4825793;29;20054;-79
2022/03/18 01:19:06;;;;;;;21.40;6.40;;;;;;;-6.71;38.15;102619.84;4834312;29;20514;-79
2022/03/18 01:21:32;;;;;;;31.27;7.97;;;;;;;-6.86;38.08;102587.09;4840639;29;20081;-80
2022/03/18 01:23:57;;;;;;;22.80;6.77;;;;;;;-6.71;38.39;102623.25;4839834;29;20103;-79
2022/03/18 01:26:24;;;;;;;22.30;6.83;;;;;;;-6.83;38.27;102611.84;4811196;29;20482;-79
2022/03/18 01:28:51;;;;;;;18.93;6.77;;;;;;;-6.67;38.22;102639.69;4842976;29;20046;-81
2022/03/18 01:31:17;;;;;;;26.00;7.30;;;;;;;-6.96;38.21;102595.34;4827236;29;20602;-78
2022/03/18 01:33:43;;;;;;;20.23;6.17;;;;;;;-6.75;38.23;102643.03;4823168;29;20054;-79
2022/03/18 01:36:11;;;;;;;19.57;6.30;;;;;;;-7.05;38.45;102599.41;4825575;29;20141;-81
2022/03/18 01:38:37;;;;;;;27.57;6.70;;;;;;;-6.86;38.58;102642.81;4837022;29;20111;-82
2022/03/18 01:41:27;;;;;;;23.50;6.37;;;;;;;-6.85;38.59;102642.06;4839925;29;20611;-80
2022/03/18 01:43:53;;;;;;;24.77;6.47;;;;;;;-6.86;38.59;102640.28;4827489;29;20057;-79
2022/03/18 01:46:19;;;;;;;23.37;6.90;;;;;;;-6.82;38.85;102646.56;4829279;29;20049;-79
2022/03/18 01:48:46;;;;;;;24.43;6.90;;;;;;;-6.81;38.94;102643.28;4826032;29;20045;-81
2022/03/18 01:51:16;;;;;;;35.43;9.23;;;;;;;-6.77;39.44;102637.81;4840784;29;20049;-81
2022/03/18 01:53:43;;;;;;;33.23;7.77;;;;;;;-7.00;38.74;102598.28;4827484;29;20046;-80
2022/03/18 01:56:10;;;;;;;33.77;8.43;;;;;;;-6.92;38.92;102636.16;4824169;29;20049;-81
2022/03/18 01:58:36;;;;;;;28.03;7.93;;;;;;;-7.01;39.07;102611.69;4829090;29;20069;-79
2022/03/18 02:01:03;;;;;;;29.13;8.40;;;;;;;-6.93;39.32;102612.50;4827465;29;20410;-80
2022/03/18 02:03:29;;;;;;;33.53;9.20;;;;;;;-6.97;39.26;102602.75;4825993;29;20502;-79
2022/03/18 02:05:57;;;;;;;31.73;8.43;;;;;;;-6.88;39.35;102615.50;4840022;29;20050;-81
2022/03/18 02:08:23;;;;;;;33.30;8.93;;;;;;;-6.76;39.01;102637.09;4831720;29;20042;-79
2022/03/18 02:10:49;;;;;;;35.30;8.03;;;;;;;-7.04;39.48;102591.09;4835052;29;20073;-80
2022/03/18 02:13:15;;;;;;;28.47;7.87;;;;;;;-6.75;39.23;102636.34;4815487;29;20153;-79
2022/03/18 02:15:41;;;;;;;36.53;7.57;;;;;;;-6.71;39.55;102648.59;4826454;29;20472;-81
2022/03/18 02:18:07;;;;;;;28.33;7.87;;;;;;;-6.86;39.23;102632.69;4825501;29;20092;-81
2022/03/18 02:20:35;;;;;;;31.13;7.63;;;;;;;-6.91;39.64;102627.84;4825010;29;20081;-79
2022/03/18 02:23:01;;;;;;;28.17;7.70;;;;;;;-6.91;39.63;102625.31;4826187;29;20053;-80
2022/03/18 02:25:28;;;;;;;31.40;7.93;;;;;;;-6.79;39.22;102653.56;4838820;29;20564;-80
2022/03/18 02:27:56;;;;;;;28.90;8.30;;;;;;;-7.06;39.91;102605.22;4826846;29;20061;-79
2022/03/18 02:30:23;;;;;;;26.93;8.97;;;;;;;-6.74;39.67;102653.34;4836926;29;20515;-81
2022/03/18 02:32:49;;;;;;;28.33;8.30;;;;;;;-6.85;39.78;102628.50;4827140;29;20089;-80
2022/03/18 02:35:15;;;;;;;46.47;9.67;;;;;;;-7.07;40.11;102595.81;4824685;29;20054;-80
2022/03/18 02:37:41;;;;;;;44.37;10.40;;;;;;;-6.74;39.70;102660.94;4817791;29;20053;-80
2022/03/18 02:40:08;;;;;;;44.43;9.03;;;;;;;-6.72;39.98;102658.56;4825921;29;20482;-80
2022/03/18 02:42:34;;;;;;;33.93;9.47;;;;;;;-6.71;39.68;102660.38;4801229;29;20050;-81
2022/03/18 02:45:02;;;;;;;29.58;8.65;;;;;;;-6.73;40.27;102656.78;4825710;29;20050;-79
2022/03/18 02:47:28;;;;;;;49.83;8.70;;;;;;;-6.75;40.08;102656.63;4826657;29;20046;-80
2022/03/18 02:49:55;;;;;;;44.97;8.00;;;;;;;-6.85;40.48;102648.75;4835585;29;20509;-80
2022/03/18 02:52:21;;;;;;;37.33;8.53;;;;;;;-6.88;40.02;102638.28;4824784;29;20226;-81
2022/03/18 02:54:47;;;;;;;37.43;7.43;;;;;;;-6.75;40.04;102661.69;4835195;29;20053;-79
2022/03/18 02:57:13;;;;;;;35.43;8.00;;;;;;;-6.77;40.21;102657.16;4841310;29;20136;-80
2022/03/18 02:59:40;;;;;;;36.40;8.03;;;;;;;-6.81;40.39;102654.31;4845123;29;20107;-81
2022/03/18 03:02:06;;;;;;;21.33;6.93;;;;;;;-6.76;40.65;102653.91;4831843;29;20075;-80
2022/03/18 03:04:32;;;;;;;35.27;8.23;;;;;;;-6.79;40.36;102645.97;4846582;29;20169;-80
2022/03/18 03:09:42;;;;;;;27.27;8.20;;;;;;;-6.97;40.63;102612.88;4825115;29;20458;-80
2022/03/18 03:12:09;;;;;;;33.27;8.87;;;;;;;-6.88;40.25;102628.16;4809588;29;20097;-79
2022/03/18 03:14:36;;;;;;;25.23;7.30;;;;;;;-6.93;40.34;102619.16;4826725;29;20046;-80
2022/03/18 03:17:03;;;;;;;25.80;8.03;;;;;;;-6.85;40.35;102634.47;4840667;29;20061;-79
2022/03/18 03:19:30;;;;;;;39.33;8.73;;;;;;;-6.84;40.63;102632.84;4843103;29;20077;-80
2022/03/18 03:21:55;;;;;;;34.07;9.30;;;;;;;-6.80;40.48;102637.50;4842284;29;20046;-80
2022/03/18 03:24:21;;;;;;;42.63;8.17;;;;;;;-6.67;40.75;102655.78;4835271;29;20050;-80
2022/03/18 03:26:47;;;;;;;32.33;8.33;;;;;;;-6.84;40.71;102618.53;4843513;29;20069;-81
2022/03/18 03:29:14;;;;;;;37.77;8.47;;;;;;;-6.55;40.25;102661.25;4821214;29;20140;-80
2022/03/18 03:31:39;;;;;;;32.13;8.43;;;;;;;-6.70;40.55;102637.72;4818198;29;20057;-80
2022/03/18 03:34:05;;;;;;;31.30;9.00;;;;;;;-6.67;40.79;102658.31;4841386;29;20188;-80
2022/03/18 03:36:31;;;;;;;29.30;7.27;;;;;;;-6.67;40.71;102660.84;4835975;29;20057;-80
2022/03/18 03:38:57;;;;;;;24.37;8.73;;;;;;;-6.67;40.79;102657.44;4840940;29;20070;-81
2022/03/18 03:41:23;;;;;;;24.73;7.33;;;;;;;-6.67;40.80;102655.78;4837959;29;20145;-81
2022/03/18 03:43:50;;;;;;;30.70;7.97;;;;;;;-6.77;41.12;102632.75;4835738;29;20038;-81
2022/03/18 03:46:16;;;;;;;29.93;7.93;;;;;;;-6.83;40.59;102632.09;4830780;29;20100;-81
2022/03/18 03:48:42;;;;;;;24.47;8.47;;;;;;;-6.66;40.44;102657.59;4830580;29;20460;-80
2022/03/18 03:51:08;;;;;;;33.87;9.17;;;;;;;-6.69;41.13;102637.00;4823711;29;20046;-79
2022/03/18 03:53:34;;;;;;;32.00;10.40;;;;;;;-6.66;41.04;102646.56;4830758;29;20042;-79
2022/03/18 03:56:00;;;;;;;42.80;9.03;;;;;;;-6.60;40.66;102636.19;4842618;29;20042;-79
2022/03/18 03:58:26;;;;;;;41.50;9.40;;;;;;;-6.66;40.81;102624.66;4829587;29;20042;-81
2022/03/18 04:00:52;;;;;;;32.00;9.32;;;;;;;-6.28;40.93;102666.53;4810093;29;20053;-81
2022/03/18 04:03:18;;;;;;;37.70;9.53;;;;;;;-6.16;41.23;102670.38;4828127;29;20042;-82
2022/03/18 04:05:44;;;;;;;46.33;10.27;;;;;;;-6.10;40.97;102649.81;4838283;29;20531;-81
2022/03/18 04:08:10;;;;;;;35.55;9.77;;;;;;;-6.06;40.81;102635.06;4836381;29;20052;-81
2022/03/18 04:10:55;;;;;;;32.80;8.45;;;;;;;-5.83;40.65;102650.84;4836484;29;20048;-81
2022/03/18 04:13:22;;;;;;;27.15;8.02;;;;;;;-5.69;40.84;102645.56;4826107;29;20614;-81
2022/03/18 04:15:48;;;;;;;28.65;8.63;;;;;;;-5.71;40.58;102623.31;4828566;29;20038;-81
2022/03/18 04:18:15;;;;;;;35.00;9.25;;;;;;;-5.61;40.67;102626.03;4828074;29;20498;-83
2022/03/18 04:20:42;;;;;;;28.40;8.70;;;;;;;-5.26;40.54;102643.94;4816829;29;20043;-82
2022/03/18 04:23:08;;;;;;;29.70;8.30;;;;;;;-4.97;40.39;102665.38;4832001;29;20597;-81
2022/03/18 04:25:35;;;;;;;39.67;9.10;;;;;;;-5.02;39.90;102626.84;4828591;29;20510;-82
2022/03/18 04:28:02;;;;;;;29.77;8.73;;;;;;;-5.00;40.12;102590.66;4831082;29;20141;-81
2022/03/18 04:30:30;;;;;;;36.58;8.40;;;;;;;-4.90;39.98;102587.38;4829438;29;20081;-82
2022/03/18 04:32:56;;;;;;;30.52;9.38;;;;;;;-4.19;39.91;102658.56;4842953;29;20045;-80
2022/03/18 04:35:23;;;;;;;36.58;9.77;;;;;;;-3.73;39.83;102619.72;4847244;29;20087;-81
2022/03/18 04:37:50;;;;;;;29.90;10.40;;;;;;;-3.25;39.68;102585.06;4818225;29;20074;-80
2022/03/18 04:40:32;;;;;;;26.35;8.82;;;;;;;-2.25;39.08;102643.25;4828335;29;20046;-82
2022/03/18 04:43:01;;;;;;;33.45;9.38;;;;;;;-1.89;38.82;102619.16;4834368;29;20070;-79
2022/03/18 04:45:30;;;;;;;47.08;10.60;;;;;;;-1.35;38.12;102620.31;4845136;29;20069;-82
2022/03/18 04:48:02;;;;;;;38.95;11.20;;;;;;;-1.10;37.44;102630.94;4837603;29;20082;-81
2022/03/18 04:50:29;;;;;;;34.40;9.93;;;;;;;-0.69;37.52;102653.94;4816755;29;20478;-81
2022/03/18 04:53:02;;;;;;;31.30;9.65;;;;;;;-0.78;37.12;102550.91;4835575;29;20049;-81
2022/03/18 04:55:31;;;;;;;38.08;10.75;;;;;;;0.75;36.52;102541.41;4837679;29;20095;-83
2022/03/18 04:58:06;;;;;;;45.20;11.32;;;;;;;3.05;35.20;102583.13;4832761;29;20046;-80
2022/03/18 05:00:35;;;;;;;32.67;10.32;;;;;;;5.01;34.91;102596.97;4817694;29;20106;-81
2022/03/18 05:03:05;;;;;;;38.55;12.75;;;;;;;6.25;32.11;102544.44;4837692;29;20110;-82
2022/03/18 05:05:32;;;;;;;31.33;11.48;;;;;;;8.26;30.62;102640.59;4836952;29;20042;-81
2022/03/18 05:07:58;;;;;;;34.45;10.68;;;;;;;9.31;29.37;102611.41;4839354;29;20049;-78
2022/03/18 05:10:24;;;;;;;49.15;11.10;;;;;;;10.52;28.22;102616.06;4834604;29;20559;-79
2022/03/18 05:12:52;;;;;;;60.65;11.90;;;;;;;11.79;26.62;102621.13;4827782;29;20082;-80
2022/03/18 05:15:19;;;;;;;39.97;11.80;;;;;;;12.80;25.46;102617.09;4796319;29;20042;-81
2022/03/18 05:17:50;;;;;;;45.33;12.55;;;;;;;13.86;24.36;102624.06;4836757;29;20042;-79
2022/03/18 05:20:18;;;;;;;42.58;12.00;;;;;;;14.68;23.81;102585.59;4847656;29;20976;-80
2022/03/18 05:22:45;;;;;;;31.00;10.98;;;;;;;15.17;22.63;102585.56;4830564;29;20050;-82
2022/03/18 05:25:12;;;;;;;29.40;9.27;;;;;;;16.04;21.86;102596.44;4848135;29;20138;-80
2022/03/18 05:27:44;;;;;;;15.60;7.00;;;;;;;17.06;21.03;102604.56;4846053;29;20475;-79
2022/03/18 05:30:12;;;;;;;13.43;6.10;;;;;;;17.58;20.46;102589.19;4826969;29;20050;-81
2022/03/18 05:32:41;;;;;;;15.85;6.28;;;;;;;18.37;19.23;102601.84;4841881;29;20077;-82
2022/03/18 05:35:13;;;;;;;10.40;5.40;;;;;;;19.09;18.65;102571.19;4816515;29;20046;-81
2022/03/18 05:37:43;;;;;;;10.25;5.60;;;;;;;20.03;17.83;102593.91;4826197;29;20053;-81
2022/03/18 05:40:10;;;;;;;16.95;6.38;;;;;;;20.28;16.96;102565.59;4828576;29;20165;-80
2022/03/18 05:42:37;;;;;;;12.23;6.43;;;;;;;19.69;16.75;102589.56;4839827;29;20099;-79
2022/03/18 05:45:07;;;;;;;12.07;6.30;;;;;;;17.92;16.96;102609.56;4824992;29;20054;-80
2022/03/18 05:47:35;;;;;;;18.10;7.10;;;;;;;16.47;17.48;102599.59;4821797;29;20145;-79
2022/03/18 05:50:06;;;;;;;18.02;7.55;;;;;;;15.03;17.83;102584.44;4826967;29;20529;-79
2022/03/18 05:52:33;;;;;;;;;;;;;;;14.06;18.15;102602.69;4829812;29;20046;-81
2022/03/18 05:55:00;;;;;;;16.35;7.22;;;;;;;12.70;19.04;102568.03;4841791;29;19920;-77
2022/03/18 05:57:30;;;;;;;14.57;6.70;;;;;;;11.80;19.24;102604.66;4820431;29;20046;-78
2022/03/18 06:00:00;;;;;;;13.73;6.80;;;;;;;11.07;19.55;102597.09;4841386;29;20093;-80
2022/03/18 06:02:28;;;;;;;16.58;7.18;;;;;;;10.56;20.11;102627.47;4831094;29;20049;-79
2022/03/18 06:04:54;;;;;;;14.13;6.60;;;;;;;9.17;20.46;102441.97;4827500;29;20132;-79
2022/03/18 06:07:21;;;;;;;13.70;5.95;;;;;;;9.84;20.14;102604.81;4848327;29;20407;-78
2022/03/18 06:12:33;;;;;;;10.05;6.32;;;;;;;11.69;20.44;102539.09;4839786;29;20042;-80
2022/03/18 06:14:59;;;;;;;15.50;6.55;;;;;;;14.53;19.37;102601.00;4828282;29;20058;-77
2022/03/18 06:17:25;;;;;;;9.70;6.05;;;;;;;16.81;18.46;102575.38;4798100;29;20046;-77
2022/03/18 06:19:54;;;;;;;14.55;5.88;;;;;;;18.54;16.84;102596.63;4803916;29;20058;-80
2022/03/18 06:22:21;;;;;;;10.23;6.43;;;;;;;19.32;16.04;102570.28;4828139;29;21368;-80
2022/03/18 06:24:46;;;;;;;12.40;5.82;;;;;;;19.87;15.89;102540.19;4839992;29;20081;-78
2022/03/18 06:27:13;;;;;;;15.80;6.57;;;;;;;21.08;15.15;102587.09;4814843;29;20042;-79
2022/03/18 06:29:43;;;;;;;12.32;6.22;;;;;;;22.38;14.94;102585.63;4838101;29;20042;-79
2022/03/18 06:32:10;;;;;;;9.93;6.32;;;;;;;23.83;13.86;102576.09;4824101;29;20079;-79
2022/03/18 06:34:36;;;;;;;17.45;7.00;;;;;;;25.00;13.37;102557.47;4855560;29;20056;-79
2022/03/18 06:37:03;;;;;;;12.65;5.75;;;;;;;26.12;13.04;102536.56;4842732;29;20049;-79
2022/03/18 06:39:29;;;;;;;13.65;6.63;;;;;;;27.09;12.30;102550.28;4829309;29;20039;-81
2022/03/18 06:41:56;;;;;;;10.32;6.00;;;;;;;27.73;11.72;102532.81;4841715;29;20038;-81
2022/03/18 06:44:22;;;;;;;16.02;6.35;;;;;;;28.47;11.62;102543.28;4842406;29;20050;-80
2022/03/18 06:46:50;;;;;;;23.25;7.05;;;;;;;29.07;10.88;102547.91;4840410;29;20065;-79
2022/03/18 06:49:16;;;;;;;13.02;6.25;;;;;;;29.59;10.86;102542.03;4839698;29;20073;-79
2022/03/18 06:51:46;;;;;;;9.35;6.25;;;;;;;29.97;10.13;102527.78;4840610;29;20114;-80
2022/03/18 06:54:12;;;;;;;17.73;6.25;;;;;;;30.78;9.76;102542.63;4846084;29;20042;-80
2022/03/18 06:56:38;;;;;;;10.68;6.32;;;;;;;31.03;9.70;102522.50;4843865;29;20110;-80
2022/03/18 06:59:04;;;;;;;11.77;6.05;;;;;;;30.62;9.46;102532.63;4838743;29;20053;-81
2022/03/18 07:01:31;;;;;;;12.10;6.60;;;;;;;30.88;9.49;102525.06;4847148;29;20132;-79
2022/03/18 07:03:57;;;;;;;13.50;6.03;;;;;;;31.60;9.71;102519.44;4828613;29;20129;-80
2022/03/18 07:06:24;;;;;;;12.45;6.13;;;;;;;32.12;9.16;102530.91;4844177;29;20046;-81
2022/03/18 07:08:50;;;;;;;12.27;5.90;;;;;;;32.63;9.14;102525.25;4847656;29;20042;-82
2022/03/18 07:11:16;;;;;;;12.65;6.30;;;;;;;33.22;8.29;102524.38;4834861;29;20101;-80
2022/03/18 07:13:45;;;;;;;10.15;6.20;;;;;;;33.59;8.46;102523.91;4823644;29;20058;-80
2022/03/18 07:19:01;;;;;;;12.30;5.68;;;;;;;34.30;7.70;102504.91;4808317;29;20089;-80
2022/03/18 07:21:28;;;;;;;12.18;6.28;;;;;;;34.64;8.00;102518.81;4846172;29;20045;-80
2022/03/18 07:23:54;;;;;;;11.75;6.00;;;;;;;34.75;7.91;102455.91;4847457;29;20069;-79
2022/03/18 07:26:21;;;;;;;15.82;6.20;;;;;;;35.27;7.66;102519.81;4807833;29;20073;-79
2022/03/18 07:28:47;;;;;;;10.38;6.72;;;;;;;35.35;7.31;102502.16;4851471;29;20579;-80
2022/03/18 07:31:22;;;;;;;14.43;5.97;;;;;;;35.54;7.27;102510.69;4810120;29;20073;-80
2022/03/18 07:33:51;;;;;;;13.27;5.85;;;;;;;35.67;6.87;102499.81;4830487;29;20139;-82
2022/03/18 07:36:17;;;;;;;15.18;6.20;;;;;;;35.85;7.21;102502.16;4829439;29;20050;-81
2022/03/18 07:38:44;;;;;;;14.40;6.13;;;;;;;36.03;6.93;102492.66;4814241;29;20061;-80
2022/03/18 07:41:11;;;;;;;7.60;6.05;;;;;;;36.22;7.12;102488.53;4828996;29;20050;-81
2022/03/18 07:43:37;;;;;;;12.35;6.72;;;;;;;35.81;7.17;102487.94;4832246;29;20050;-81
2022/03/18 07:46:06;;;;;;;13.23;6.03;;;;;;;35.65;7.01;102479.25;4830139;29;20456;-81
2022/03/18 07:48:39;;;;;;;16.88;6.70;;;;;;;35.48;7.12;102458.84;4832505;29;20060;-80
2022/03/18 07:51:06;;;;;;;14.32;6.75;;;;;;;35.97;7.05;102497.69;4829355;29;20510;-81
2022/03/18 07:53:32;;;;;;;14.57;6.78;;;;;;;36.12;6.66;102485.66;4826380;29;20056;-82
2022/03/18 07:55:58;;;;;;;15.82;6.20;;;;;;;36.18;6.63;102487.91;4832310;29;20038;-81
2022/03/18 07:58:24;;;;;;;18.88;6.93;;;;;;;36.36;6.95;102486.59;4835659;29;20060;-81
2022/03/18 08:00:50;;;;;;;18.33;6.65;;;;;;;36.58;6.56;102470.41;4821193;29;20046;-81
2022/03/18 08:03:16;;;;;;;11.82;5.90;;;;;;;36.81;6.81;102470.44;4852582;29;20117;-81
2022/03/18 08:05:43;;;;;;;14.15;6.22;;;;;;;36.17;6.83;102461.81;4833726;29;20042;-81
2022/03/18 08:08:12;;;;;;;14.23;6.45;;;;;;;36.32;6.85;102464.31;4839714;29;20062;-80
2022/03/18 08:10:38;;;;;;;12.43;5.75;;;;;;;36.86;6.09;102489.03;4830724;29;20061;-82
2022/03/18 08:13:09;;;;;;;14.95;6.60;;;;;;;37.06;6.04;102468.50;4840563;29;20047;-80
2022/03/18 08:15:36;;;;;;;9.02;6.35;;;;;;;37.50;6.67;102483.03;4843927;29;20543;-80
2022/03/18 08:18:02;;;;;;;11.25;6.10;;;;;;;37.19;5.94;102485.50;4830270;29;20133;-81
2022/03/18 08:21:09;;;;;;;11.57;6.15;;;;;;;36.67;6.14;102349.53;4830603;29;20101;-81
2022/03/18 08:23:38;;;;;;;13.93;6.68;;;;;;;36.94;6.45;102372.72;4835296;29;20131;-80
2022/03/18 08:26:04;;;;;;;12.73;6.82;;;;;;;37.27;6.59;102408.91;4853669;29;20526;-81
2022/03/18 08:31:19;;;;;;;13.18;6.72;;;;;;;37.20;5.85;102415.81;4816208;29;20089;-81
2022/03/18 08:33:46;;;;;;;13.75;6.72;;;;;;;37.41;6.39;102453.88;4845204;29;20101;-81
2022/03/18 08:36:12;;;;;;;14.15;6.60;;;;;;;37.56;6.51;102475.38;4835955;29;20064;-82
2022/03/18 08:38:40;;;;;;;14.77;6.55;;;;;;;37.83;6.30;102478.50;4848652;29;20049;-80
2022/03/18 08:41:06;;;;;;;16.75;6.53;;;;;;;37.13;5.88;102469.75;4847979;29;20057;-80
2022/03/18 08:43:35;;;;;;;23.00;10.45;;;;;;;37.06;6.08;102474.81;4845910;29;20518;-82
2022/03/18 08:46:05;;;;;;;14.63;6.88;;;;;;;37.51;6.23;102471.16;4831879;29;20546;-81
2022/03/18 08:48:34;;;;;;;12.55;6.80;;;;;;;37.53;6.11;102390.47;4832875;29;20585;-79
2022/03/18 08:51:00;;;;;;;11.00;6.68;;;;;;;38.53;6.16;102456.28;4861876;29;20045;-80
2022/03/18 08:53:26;;;;;;;11.48;6.03;;;;;;;38.82;5.81;102462.88;4846310;29;20497;-80
2022/03/18 08:55:54;;;;;;;8.38;5.85;;;;;;;38.42;5.87;102423.75;4837683;29;20056;-81
2022/03/18 08:58:22;;;;;;;12.82;6.30;;;;;;;38.22;6.00;102434.47;4846932;29;20080;-81
2022/03/18 09:00:48;;;;;;;16.20;6.07;;;;;;;38.76;5.86;102474.28;4838776;29;20129;-80
2022/03/18 09:03:17;;;;;;;9.77;6.47;;;;;;;38.86;6.00;102480.69;4831956;29;20056;-80
2022/03/18 09:05:46;;;;;;;10.45;6.70;;;;;;;38.67;5.67;102443.31;4855154;29;20168;-80
2022/03/18 09:08:14;;;;;;;16.90;6.03;;;;;;;38.02;6.23;102371.00;4831511;29;20065;-83
2022/03/18 09:10:46;;;;;;;13.55;6.43;;;;;;;38.44;6.15;102385.56;4851130;29;20053;-81
2022/03/18 09:13:16;;;;;;;15.95;6.45;;;;;;;38.56;6.00;102437.00;4830725;29;20068;-83
2022/03/18 09:15:43;;;;;;;11.95;5.93;;;;;;;38.60;5.86;102469.34;4846960;29;20045;-81
2022/03/18 09:18:14;;;;;;;9.73;6.25;;;;;;;38.51;6.13;102466.44;4826443;29;20110;-79
2022/03/18 09:20:42;;;;;;;11.25;6.45;;;;;;;38.58;6.00;102455.88;4828200;29;20060;-79
2022/03/18 09:23:11;;;;;;;13.77;6.82;;;;;;;38.98;6.05;102456.94;4855811;29;20053;-82
2022/03/18 09:25:37;;;;;;;10.25;6.40;;;;;;;39.11;5.85;102445.81;4853815;29;20143;-80
2022/03/18 09:28:05;;;;;;;10.48;6.03;;;;;;;38.76;5.98;102445.25;4846086;29;20041;-80
2022/03/18 09:30:32;;;;;;;9.80;5.83;;;;;;;38.25;5.67;102455.94;4846599;29;20045;-80
2022/03/18 09:32:58;;;;;;;11.18;5.43;;;;;;;37.51;6.10;102440.47;4828379;29;20064;-80
2022/03/18 09:35:27;;;;;;;11.90;5.30;;;;;;;37.51;6.06;102451.31;4847277;29;20049;-81
2022/03/18 09:37:57;;;;;;;9.43;5.15;;;;;;;37.80;6.00;102377.38;4847642;29;20050;-81
2022/03/18 09:40:23;;;;;;;12.52;5.40;;;;;;;38.32;5.57;102442.69;4845481;29;20079;-79
2022/03/18 09:43:02;;;;;;;14.05;4.82;;;;;;;38.06;5.62;102439.50;4846321;29;20056;-81
2022/03/18 09:45:31;;;;;;;5.88;4.40;;;;;;;37.94;5.59;102436.88;4845642;29;20076;-81
2022/03/18 09:48:03;;;;;;;7.10;4.20;;;;;;;37.63;6.26;102431.28;4849604;29;20053;-81
2022/03/18 09:50:31;;;;;;;8.82;5.13;;;;;;;36.99;6.06;102365.06;4838988;29;20046;-82
2022/03/18 09:52:58;;;;;;;9.05;4.78;;;;;;;37.58;5.99;102400.94;4836438;29;20084;-81
2022/03/18 09:55:25;;;;;;;8.52;4.47;;;;;;;37.38;5.91;102427.03;4818196;29;20185;-81
2022/03/18 09:57:53;;;;;;;6.57;4.35;;;;;;;37.50;6.11;102434.16;4827028;29;20049;-80
2022/03/18 10:00:19;;;;;;;7.03;4.50;;;;;;;36.67;6.03;102420.00;4844504;29;20038;-80
2022/03/18 10:02:45;;;;;;;8.32;4.68;;;;;;;36.99;5.96;102421.16;4812755;29;20050;-81
2022/03/18 10:05:18;;;;;;;10.90;4.93;;;;;;;37.51;6.09;102414.16;4834264;29;20049;-81
2022/03/18 10:07:53;;;;;;;7.40;4.32;;;;;;;37.67;6.31;102421.00;4839273;29;20053;-83
2022/03/18 10:10:23;;;;;;;8.25;4.40;;;;;;;37.71;5.95;102400.75;4814687;29;20046;-82
2022/03/18 10:13:04;;;;;;;6.45;5.07;;;;;;;37.39;6.03;102396.19;4852659;29;20050;-84
2022/03/18 10:15:30;;;;;;;7.40;4.70;;;;;;;36.58;6.04;102340.28;4848218;29;20078;-81
2022/03/18 10:17:58;;;;;;;8.07;5.05;;;;;;;36.55;5.88;102404.75;4848424;29;20045;-79
2022/03/18 10:20:25;;;;;;;8.73;4.80;;;;;;;34.21;5.90;102384.81;4854204;29;20065;-82
2022/03/18 10:22:53;;;;;;;22.17;5.70;;;;;;;30.73;6.56;102396.91;4837098;29;20045;-81
2022/03/18 10:25:37;;;;;;;9.93;4.82;;;;;;;27.66;7.35;102361.06;4837086;29;20577;-80
2022/03/18 10:28:06;;;;;;;9.75;4.78;;;;;;;25.77;8.27;102363.38;4852129;29;20053;-81
2022/03/18 10:30:32;;;;;;;9.93;4.78;;;;;;;24.15;8.80;102385.69;4851160;29;20045;-83
2022/03/18 10:32:59;;;;;;;9.73;4.63;;;;;;;22.84;9.40;102392.94;4836406;29;20045;-82
2022/03/18 10:38:33;;;;;;;8.65;5.10;;;;;;;20.55;10.65;102398.81;4850495;29;20049;-80
2022/03/18 10:41:05;;;;;;;9.65;5.20;;;;;;;19.39;11.10;102396.06;4861432;29;20041;-82
2022/03/18 10:43:50;;;;;;;9.88;4.78;;;;;;;18.27;11.64;102395.38;4851727;29;20148;-81
2022/03/18 10:46:16;;;;;;;9.68;4.72;;;;;;;17.47;12.01;102401.34;4857548;29;20546;-80
2022/03/18 10:49:01;;;;;;;9.55;4.78;;;;;;;16.59;12.86;102377.19;4835462;29;20129;-81
2022/03/18 10:51:28;;;;;;;9.07;4.70;;;;;;;16.20;13.25;102376.88;4833603;29;20112;-81
2022/03/18 10:53:57;;;;;;;8.00;4.70;;;;;;;15.12;13.62;102297.88;4851319;29;20082;-79
2022/03/18 10:56:24;;;;;;;8.45;4.18;;;;;;;14.88;13.89;102320.31;4864170;29;20434;-80
2022/03/18 10:58:50;;;;;;;12.85;4.95;;;;;;;14.69;14.10;102337.53;4832386;29;20514;-81
2022/03/18 11:01:24;;;;;;;11.90;5.15;;;;;;;14.74;14.36;102389.13;4836532;29;20524;-84
2022/03/18 11:04:26;;;;;;;6.95;4.70;;;;;;;13.69;14.74;102291.38;4859314;29;20045;-81
2022/03/18 11:12:36;;;;;;;7.22;4.57;;;;;;;12.47;15.59;102275.81;4844765;29;20049;-82
2022/03/18 11:15:04;;;;;;;9.82;4.18;;;;;;;11.83;16.04;102281.22;4833239;29;20473;-82
2022/03/18 11:17:34;;;;;;;6.95;4.38;;;;;;;12.15;16.55;102393.41;4856524;29;20043;-80
2022/03/18 11:20:01;;;;;;;9.30;4.55;;;;;;;11.82;17.02;102371.66;4815375;29;20058;-81
2022/03/18 11:22:33;;;;;;;12.80;4.78;;;;;;;11.60;16.83;102389.31;4856741;29;20050;-80
2022/03/18 11:25:01;;;;;;;7.43;4.53;;;;;;;11.55;17.25;102398.75;4890987;29;20069;-80
2022/03/18 11:27:29;;;;;;;7.68;4.18;;;;;;;11.21;17.71;102408.19;4878541;29;20126;-80
2022/03/18 11:30:23;;;;;;;12.10;4.70;;;;;;;11.02;18.10;102388.50;4839929;29;20073;-80
2022/03/18 11:33:13;;;;;;;6.50;3.83;;;;;;;10.72;17.85;102391.91;4801013;29;20578;-80
2022/03/18 11:35:49;;;;;;;8.25;4.43;;;;;;;10.68;18.33;102397.88;4832379;29;20049;-82
2022/03/18 11:38:30;;;;;;;6.90;4.47;;;;;;;10.61;18.42;102383.75;4862993;29;20076;-80
2022/03/18 11:41:05;;;;;;;10.82;4.82;;;;;;;10.47;18.32;102401.56;4835739;29;20098;-81
2022/03/18 11:43:59;;;;;;;7.65;4.28;;;;;;;10.18;18.66;102377.09;4834218;29;20510;-81
2022/03/18 11:46:34;;;;;;;7.55;4.57;;;;;;;9.38;18.75;102240.91;4869328;29;20415;-81
2022/03/18 11:49:05;;;;;;;12.27;4.28;;;;;;;10.14;18.85;102390.84;4833850;29;20049;-84